sensor_id;sensor_type;location;lat;lon;timestamp;temperature;humidity
34147;DHT22;20423;49.448;9.056;2024-03-22T00:01:54;4.10;99.90
34147;DHT22;20423;49.448;9.056;2024-03-22T00:04:22;4.00;99.90
34147;DHT22;20423;49.448;9.056;2024-03-22T00:06:48;4.00;99.90
34147;DHT22;20423;49.448;9.056;2024-03-22T00:09:26;3.90;99.90
34147;DHT22;20423;49.448;9.056;2024-03-22T00:11:52;3.80;99.90
34147;DHT22;20423;49.448;9.056;2024-03-22T00:14:18;3.80;99.90
34147;DHT22;20423;49.448;9.056;2024-03-22T00:16:44;3.80;99.90
34147;DHT22;20423;49.448;9.056;2024-03-22T00:19:09;3.70;99.90
34147;DHT22;20423;49.448;9.056;2024-03-22T00:21:35;3.60;99.90
34147;DHT22;20423;49.448;9.056;2024-03-22T00:24:01;3.50;99.90
34147;DHT22;20423;49.448;9.056;2024-03-22T00:26:27;3.50;99.90
34147;DHT22;20423;49.448;9.056;2024-03-22T00:28:53;3.40;99.90
34147;DHT22;20423;49.448;9.056;2024-03-22T00:31:18;3.40;99.90
34147;DHT22;20423;49.448;9.056;2024-03-22T00:33:44;3.40;99.90
34147;DHT22;20423;49.448;9.056;2024-03-22T00:36:10;3.30;99.90
34147;DHT22;20423;49.448;9.056;2024-03-22T00:38:36;3.20;99.90
34147;DHT22;20423;49.448;9.056;2024-03-22T00:41:02;3.20;99.90
34147;DHT22;20423;49.448;9.056;2024-03-22T00:43:27;3.10;99.90
34147;DHT22;20423;49.448;9.056;2024-03-22T00:45:53;3.10;99.90
34147;DHT22;20423;49.448;9.056;2024-03-22T00:48:19;3.10;99.90
34147;DHT22;20423;49.448;9.056;2024-03-22T00:50:45;3.10;99.90
34147;DHT22;20423;49.448;9.056;2024-03-22T00:53:10;3.00;99.90
34147;DHT22;20423;49.448;9.056;2024-03-22T00:55:37;3.00;99.90
34147;DHT22;20423;49.448;9.056;2024-03-22T00:58:03;3.00;99.90
34147;DHT22;20423;49.448;9.056;2024-03-22T01:00:28;3.00;99.90
34147;DHT22;20423;49.448;9.056;2024-03-22T01:02:54;2.90;99.90
34147;DHT22;20423;49.448;9.056;2024-03-22T01:05:20;3.00;99.90
34147;DHT22;20423;49.448;9.056;2024-03-22T01:07:45;3.00;99.90
34147;DHT22;20423;49.448;9.056;2024-03-22T01:10:11;3.00;99.90
34147;DHT22;20423;49.448;9.056;2024-03-22T01:12:38;2.90;99.90
34147;DHT22;20423;49.448;9.056;2024-03-22T01:15:05;2.90;99.90
34147;DHT22;20423;49.448;9.056;2024-03-22T01:17:32;2.90;99.90
34147;DHT22;20423;49.448;9.056;2024-03-22T01:19:57;2.90;99.90
34147;DHT22;20423;49.448;9.056;2024-03-22T01:22:23;2.90;99.90
34147;DHT22;20423;49.448;9.056;2024-03-22T01:24:49;2.90;99.90
34147;DHT22;20423;49.448;9.056;2024-03-22T01:27:15;2.80;99.90
34147;DHT22;20423;49.448;9.056;2024-03-22T01:29:41;2.80;99.90
34147;DHT22;20423;49.448;9.056;2024-03-22T01:32:06;2.70;99.90
34147;DHT22;20423;49.448;9.056;2024-03-22T01:34:32;2.70;99.90
34147;DHT22;20423;49.448;9.056;2024-03-22T01:36:58;2.80;99.90
34147;DHT22;20423;49.448;9.056;2024-03-22T01:39:24;2.80;99.90
34147;DHT22;20423;49.448;9.056;2024-03-22T01:41:50;2.80;99.90
34147;DHT22;20423;49.448;9.056;2024-03-22T01:44:17;2.90;99.90
34147;DHT22;20423;49.448;9.056;2024-03-22T01:46:44;2.90;99.90
34147;DHT22;20423;49.448;9.056;2024-03-22T01:49:12;2.80;99.90
34147;DHT22;20423;49.448;9.056;2024-03-22T01:51:42;2.70;99.90
34147;DHT22;20423;49.448;9.056;2024-03-22T01:54:09;2.70;99.90
34147;DHT22;20423;49.448;9.056;2024-03-22T01:56:37;2.70;99.90
34147;DHT22;20423;49.448;9.056;2024-03-22T01:59:03;2.70;99.90
34147;DHT22;20423;49.448;9.056;2024-03-22T02:01:29;2.80;99.90
34147;DHT22;20423;49.448;9.056;2024-03-22T02:03:55;2.70;99.90
34147;DHT22;20423;49.448;9.056;2024-03-22T02:06:21;2.80;99.90
34147;DHT22;20423;49.448;9.056;2024-03-22T02:08:46;2.70;99.90
34147;DHT22;20423;49.448;9.056;2024-03-22T02:11:12;2.80;99.90
34147;DHT22;20423;49.448;9.056;2024-03-22T02:13:39;2.80;99.90
34147;DHT22;20423;49.448;9.056;2024-03-22T02:16:05;2.80;99.90
34147;DHT22;20423;49.448;9.056;2024-03-22T02:18:31;2.80;99.90
34147;DHT22;20423;49.448;9.056;2024-03-22T02:20:57;2.80;99.90
34147;DHT22;20423;49.448;9.056;2024-03-22T02:23:36;2.80;99.90
34147;DHT22;20423;49.448;9.056;2024-03-22T02:26:03;2.80;99.90
34147;DHT22;20423;49.448;9.056;2024-03-22T02:28:29;2.70;99.90
34147;DHT22;20423;49.448;9.056;2024-03-22T02:30:55;2.60;99.90
34147;DHT22;20423;49.448;9.056;2024-03-22T02:33:21;2.60;99.90
34147;DHT22;20423;49.448;9.056;2024-03-22T02:35:48;2.60;99.90
34147;DHT22;20423;49.448;9.056;2024-03-22T02:38:14;2.70;99.90
34147;DHT22;20423;49.448;9.056;2024-03-22T02:40:39;2.70;99.90
34147;DHT22;20423;49.448;9.056;2024-03-22T02:43:05;2.70;99.90
34147;DHT22;20423;49.448;9.056;2024-03-22T02:45:32;2.70;99.90
34147;DHT22;20423;49.448;9.056;2024-03-22T02:47:58;2.70;99.90
34147;DHT22;20423;49.448;9.056;2024-03-22T02:50:24;2.70;99.90
34147;DHT22;20423;49.448;9.056;2024-03-22T02:52:50;2.60;99.90
34147;DHT22;20423;49.448;9.056;2024-03-22T02:55:15;2.70;99.90
34147;DHT22;20423;49.448;9.056;2024-03-22T02:57:41;2.70;99.90
34147;DHT22;20423;49.448;9.056;2024-03-22T03:00:07;2.70;99.90
34147;DHT22;20423;49.448;9.056;2024-03-22T03:02:33;2.60;99.90
34147;DHT22;20423;49.448;9.056;2024-03-22T03:04:59;2.60;99.90
34147;DHT22;20423;49.448;9.056;2024-03-22T03:07:25;2.60;99.90
34147;DHT22;20423;49.448;9.056;2024-03-22T03:09:51;2.70;99.90
34147;DHT22;20423;49.448;9.056;2024-03-22T03:12:17;2.70;99.90
34147;DHT22;20423;49.448;9.056;2024-03-22T03:14:42;2.70;99.90
34147;DHT22;20423;49.448;9.056;2024-03-22T03:17:08;2.90;99.90
34147;DHT22;20423;49.448;9.056;2024-03-22T03:19:34;2.80;99.90
34147;DHT22;20423;49.448;9.056;2024-03-22T03:21:59;2.90;99.90
34147;DHT22;20423;49.448;9.056;2024-03-22T03:24:25;2.90;99.90
34147;DHT22;20423;49.448;9.056;2024-03-22T03:26:51;3.00;99.90
34147;DHT22;20423;49.448;9.056;2024-03-22T03:29:17;3.00;99.90
34147;DHT22;20423;49.448;9.056;2024-03-22T03:31:43;3.10;99.90
34147;DHT22;20423;49.448;9.056;2024-03-22T03:34:08;3.30;99.90
34147;DHT22;20423;49.448;9.056;2024-03-22T03:36:34;3.50;99.90
34147;DHT22;20423;49.448;9.056;2024-03-22T03:39:00;3.60;99.90
34147;DHT22;20423;49.448;9.056;2024-03-22T03:41:25;3.80;99.90
34147;DHT22;20423;49.448;9.056;2024-03-22T03:43:51;3.80;99.90
34147;DHT22;20423;49.448;9.056;2024-03-22T03:46:17;3.90;99.90
34147;DHT22;20423;49.448;9.056;2024-03-22T03:48:42;3.90;99.90
34147;DHT22;20423;49.448;9.056;2024-03-22T03:51:08;4.00;99.90
34147;DHT22;20423;49.448;9.056;2024-03-22T03:53:34;4.10;99.90
34147;DHT22;20423;49.448;9.056;2024-03-22T03:56:00;4.20;99.90
34147;DHT22;20423;49.448;9.056;2024-03-22T03:58:26;4.40;99.90
34147;DHT22;20423;49.448;9.056;2024-03-22T04:00:52;4.50;99.90
34147;DHT22;20423;49.448;9.056;2024-03-22T04:03:17;4.60;99.90
34147;DHT22;20423;49.448;9.056;2024-03-22T04:05:43;4.70;99.90
34147;DHT22;20423;49.448;9.056;2024-03-22T04:08:09;4.80;99.90
34147;DHT22;20423;49.448;9.056;2024-03-22T04:10:34;4.80;99.90
34147;DHT22;20423;49.448;9.056;2024-03-22T04:13:00;4.90;99.90
34147;DHT22;20423;49.448;9.056;2024-03-22T04:15:26;5.00;99.90
34147;DHT22;20423;49.448;9.056;2024-03-22T04:17:52;5.00;99.90
34147;DHT22;20423;49.448;9.056;2024-03-22T04:20:18;5.00;99.90
34147;DHT22;20423;49.448;9.056;2024-03-22T04:22:44;5.00;99.90
34147;DHT22;20423;49.448;9.056;2024-03-22T04:25:10;4.90;99.90
34147;DHT22;20423;49.448;9.056;2024-03-22T04:27:36;4.90;99.90
34147;DHT22;20423;49.448;9.056;2024-03-22T04:30:02;4.90;99.90
34147;DHT22;20423;49.448;9.056;2024-03-22T04:32:28;4.90;99.90
34147;DHT22;20423;49.448;9.056;2024-03-22T04:34:54;4.90;99.90
34147;DHT22;20423;49.448;9.056;2024-03-22T04:37:20;4.90;99.90
34147;DHT22;20423;49.448;9.056;2024-03-22T04:39:46;5.00;99.90
34147;DHT22;20423;49.448;9.056;2024-03-22T04:42:12;4.90;99.90
34147;DHT22;20423;49.448;9.056;2024-03-22T04:44:38;5.00;99.90
34147;DHT22;20423;49.448;9.056;2024-03-22T04:47:03;5.00;99.90
34147;DHT22;20423;49.448;9.056;2024-03-22T04:49:29;5.10;99.90
34147;DHT22;20423;49.448;9.056;2024-03-22T04:51:56;5.20;99.90
34147;DHT22;20423;49.448;9.056;2024-03-22T04:54:22;5.20;99.90
34147;DHT22;20423;49.448;9.056;2024-03-22T04:56:47;5.20;99.90
34147;DHT22;20423;49.448;9.056;2024-03-22T04:59:16;5.20;99.90
34147;DHT22;20423;49.448;9.056;2024-03-22T05:01:43;5.20;99.90
34147;DHT22;20423;49.448;9.056;2024-03-22T05:04:09;5.30;99.90
34147;DHT22;20423;49.448;9.056;2024-03-22T05:06:35;5.20;99.90
34147;DHT22;20423;49.448;9.056;2024-03-22T05:09:01;5.30;99.90
34147;DHT22;20423;49.448;9.056;2024-03-22T05:11:28;5.30;99.90
34147;DHT22;20423;49.448;9.056;2024-03-22T05:13:54;5.30;99.90
34147;DHT22;20423;49.448;9.056;2024-03-22T05:16:20;5.40;99.90
34147;DHT22;20423;49.448;9.056;2024-03-22T05:18:46;5.40;99.90
34147;DHT22;20423;49.448;9.056;2024-03-22T05:21:12;5.30;99.90
34147;DHT22;20423;49.448;9.056;2024-03-22T05:23:38;5.40;99.90
34147;DHT22;20423;49.448;9.056;2024-03-22T05:26:04;5.40;99.90
34147;DHT22;20423;49.448;9.056;2024-03-22T05:28:29;5.40;99.90
34147;DHT22;20423;49.448;9.056;2024-03-22T05:30:56;5.50;99.90
34147;DHT22;20423;49.448;9.056;2024-03-22T05:33:21;5.40;99.90
34147;DHT22;20423;49.448;9.056;2024-03-22T05:35:53;5.50;99.90
34147;DHT22;20423;49.448;9.056;2024-03-22T05:38:19;5.60;99.90
34147;DHT22;20423;49.448;9.056;2024-03-22T05:40:44;5.60;99.90
34147;DHT22;20423;49.448;9.056;2024-03-22T05:43:13;5.70;99.90
34147;DHT22;20423;49.448;9.056;2024-03-22T05:45:39;5.70;99.90
34147;DHT22;20423;49.448;9.056;2024-03-22T05:48:05;5.80;99.90
34147;DHT22;20423;49.448;9.056;2024-03-22T05:50:31;5.90;99.90
34147;DHT22;20423;49.448;9.056;2024-03-22T05:52:57;5.90;99.90
34147;DHT22;20423;49.448;9.056;2024-03-22T05:55:22;6.00;99.90
34147;DHT22;20423;49.448;9.056;2024-03-22T05:57:48;6.00;99.90
34147;DHT22;20423;49.448;9.056;2024-03-22T06:00:14;6.00;99.90
34147;DHT22;20423;49.448;9.056;2024-03-22T06:02:40;6.10;99.90
34147;DHT22;20423;49.448;9.056;2024-03-22T06:05:06;6.10;99.90
34147;DHT22;20423;49.448;9.056;2024-03-22T06:07:32;6.20;99.90
34147;DHT22;20423;49.448;9.056;2024-03-22T06:10:06;6.20;99.90
34147;DHT22;20423;49.448;9.056;2024-03-22T06:12:32;6.30;99.90
34147;DHT22;20423;49.448;9.056;2024-03-22T06:14:58;6.30;99.90
34147;DHT22;20423;49.448;9.056;2024-03-22T06:17:23;6.40;99.90
34147;DHT22;20423;49.448;9.056;2024-03-22T06:19:49;6.40;99.90
34147;DHT22;20423;49.448;9.056;2024-03-22T06:22:15;6.50;99.90
34147;DHT22;20423;49.448;9.056;2024-03-22T06:24:41;6.60;99.90
34147;DHT22;20423;49.448;9.056;2024-03-22T06:27:07;6.70;99.90
34147;DHT22;20423;49.448;9.056;2024-03-22T06:29:33;6.90;99.90
34147;DHT22;20423;49.448;9.056;2024-03-22T06:31:59;7.00;99.90
34147;DHT22;20423;49.448;9.056;2024-03-22T06:34:24;7.20;99.90
34147;DHT22;20423;49.448;9.056;2024-03-22T06:36:50;7.30;99.90
34147;DHT22;20423;49.448;9.056;2024-03-22T06:39:16;7.30;99.90
34147;DHT22;20423;49.448;9.056;2024-03-22T06:41:42;7.40;99.90
34147;DHT22;20423;49.448;9.056;2024-03-22T06:44:08;7.40;99.90
34147;DHT22;20423;49.448;9.056;2024-03-22T06:46:37;7.50;99.90
34147;DHT22;20423;49.448;9.056;2024-03-22T06:49:03;7.60;99.90
34147;DHT22;20423;49.448;9.056;2024-03-22T06:51:29;7.80;99.90
34147;DHT22;20423;49.448;9.056;2024-03-22T06:53:55;7.90;99.90
34147;DHT22;20423;49.448;9.056;2024-03-22T06:56:21;8.10;99.90
34147;DHT22;20423;49.448;9.056;2024-03-22T06:58:47;8.30;99.90
34147;DHT22;20423;49.448;9.056;2024-03-22T07:01:13;8.60;99.90
34147;DHT22;20423;49.448;9.056;2024-03-22T07:03:38;8.80;99.90
34147;DHT22;20423;49.448;9.056;2024-03-22T07:06:04;9.00;99.90
34147;DHT22;20423;49.448;9.056;2024-03-22T07:08:33;9.30;99.90
34147;DHT22;20423;49.448;9.056;2024-03-22T07:10:59;9.50;99.90
34147;DHT22;20423;49.448;9.056;2024-03-22T07:17:13;9.80;99.90
34147;DHT22;20423;49.448;9.056;2024-03-22T07:19:41;10.20;99.90
34147;DHT22;20423;49.448;9.056;2024-03-22T07:22:08;10.40;99.90
34147;DHT22;20423;49.448;9.056;2024-03-22T07:24:34;10.70;99.90
34147;DHT22;20423;49.448;9.056;2024-03-22T07:27:00;10.90;99.90
34147;DHT22;20423;49.448;9.056;2024-03-22T07:29:26;11.00;99.90
34147;DHT22;20423;49.448;9.056;2024-03-22T07:31:51;11.00;99.90
34147;DHT22;20423;49.448;9.056;2024-03-22T07:34:17;10.90;99.90
34147;DHT22;20423;49.448;9.056;2024-03-22T07:36:43;11.10;99.90
34147;DHT22;20423;49.448;9.056;2024-03-22T07:39:09;11.20;99.90
34147;DHT22;20423;49.448;9.056;2024-03-22T07:41:35;11.20;99.90
34147;DHT22;20423;49.448;9.056;2024-03-22T07:44:01;11.20;99.90
34147;DHT22;20423;49.448;9.056;2024-03-22T07:46:27;11.20;99.90
34147;DHT22;20423;49.448;9.056;2024-03-22T07:48:53;11.40;99.90
34147;DHT22;20423;49.448;9.056;2024-03-22T07:51:19;11.50;99.90
34147;DHT22;20423;49.448;9.056;2024-03-22T07:53:45;12.00;99.90
34147;DHT22;20423;49.448;9.056;2024-03-22T07:56:11;12.30;99.90
34147;DHT22;20423;49.448;9.056;2024-03-22T07:58:37;12.50;99.90
34147;DHT22;20423;49.448;9.056;2024-03-22T08:01:03;12.60;99.90
34147;DHT22;20423;49.448;9.056;2024-03-22T08:03:29;12.80;99.90
34147;DHT22;20423;49.448;9.056;2024-03-22T08:05:54;12.80;99.90
34147;DHT22;20423;49.448;9.056;2024-03-22T08:08:20;12.80;99.90
34147;DHT22;20423;49.448;9.056;2024-03-22T08:10:46;12.60;99.90
34147;DHT22;20423;49.448;9.056;2024-03-22T08:16:59;12.90;99.90
34147;DHT22;20423;49.448;9.056;2024-03-22T08:19:25;12.80;99.90
34147;DHT22;20423;49.448;9.056;2024-03-22T08:21:50;12.60;99.90
34147;DHT22;20423;49.448;9.056;2024-03-22T08:24:18;12.80;99.90
34147;DHT22;20423;49.448;9.056;2024-03-22T08:26:44;13.00;99.90
34147;DHT22;20423;49.448;9.056;2024-03-22T08:29:13;13.30;99.90
34147;DHT22;20423;49.448;9.056;2024-03-22T08:31:40;13.70;99.90
34147;DHT22;20423;49.448;9.056;2024-03-22T08:34:07;14.00;99.90
34147;DHT22;20423;49.448;9.056;2024-03-22T08:36:33;14.10;99.90
34147;DHT22;20423;49.448;9.056;2024-03-22T08:38:59;14.20;99.90
34147;DHT22;20423;49.448;9.056;2024-03-22T08:41:25;14.20;99.90
34147;DHT22;20423;49.448;9.056;2024-03-22T08:43:51;14.20;99.90
34147;DHT22;20423;49.448;9.056;2024-03-22T08:46:16;14.20;99.90
34147;DHT22;20423;49.448;9.056;2024-03-22T08:48:42;13.90;99.90
34147;DHT22;20423;49.448;9.056;2024-03-22T08:51:08;13.90;99.90
34147;DHT22;20423;49.448;9.056;2024-03-22T08:53:34;13.80;99.90
34147;DHT22;20423;49.448;9.056;2024-03-22T08:55:59;13.80;99.90
34147;DHT22;20423;49.448;9.056;2024-03-22T08:58:26;13.90;99.90
34147;DHT22;20423;49.448;9.056;2024-03-22T09:00:52;13.90;99.90
34147;DHT22;20423;49.448;9.056;2024-03-22T09:03:18;13.90;99.90
34147;DHT22;20423;49.448;9.056;2024-03-22T09:05:43;13.90;99.90
34147;DHT22;20423;49.448;9.056;2024-03-22T09:08:09;13.70;99.90
34147;DHT22;20423;49.448;9.056;2024-03-22T09:10:35;13.50;99.90
34147;DHT22;20423;49.448;9.056;2024-03-22T09:13:00;13.40;99.90
34147;DHT22;20423;49.448;9.056;2024-03-22T09:15:26;13.30;99.90
34147;DHT22;20423;49.448;9.056;2024-03-22T09:18:05;13.40;99.90
34147;DHT22;20423;49.448;9.056;2024-03-22T09:20:30;13.70;99.90
34147;DHT22;20423;49.448;9.056;2024-03-22T09:22:56;14.10;99.90
34147;DHT22;20423;49.448;9.056;2024-03-22T09:25:25;14.40;99.90
34147;DHT22;20423;49.448;9.056;2024-03-22T09:27:51;14.60;99.90
34147;DHT22;20423;49.448;9.056;2024-03-22T09:30:16;14.60;99.90
34147;DHT22;20423;49.448;9.056;2024-03-22T09:32:42;14.70;99.90
34147;DHT22;20423;49.448;9.056;2024-03-22T09:35:09;14.60;99.90
34147;DHT22;20423;49.448;9.056;2024-03-22T09:37:35;14.60;99.90
34147;DHT22;20423;49.448;9.056;2024-03-22T09:40:01;14.40;99.90
34147;DHT22;20423;49.448;9.056;2024-03-22T09:42:33;14.40;99.90
34147;DHT22;20423;49.448;9.056;2024-03-22T09:44:58;14.50;99.90
34147;DHT22;20423;49.448;9.056;2024-03-22T09:47:25;14.50;99.90
34147;DHT22;20423;49.448;9.056;2024-03-22T09:49:52;14.40;99.90
34147;DHT22;20423;49.448;9.056;2024-03-22T09:52:20;14.40;99.90
34147;DHT22;20423;49.448;9.056;2024-03-22T09:54:46;14.40;99.90
34147;DHT22;20423;49.448;9.056;2024-03-22T09:57:15;14.20;99.90
34147;DHT22;20423;49.448;9.056;2024-03-22T10:03:12;14.10;99.90
34147;DHT22;20423;49.448;9.056;2024-03-22T10:05:38;14.20;99.90
34147;DHT22;20423;49.448;9.056;2024-03-22T10:08:29;14.40;99.90
34147;DHT22;20423;49.448;9.056;2024-03-22T10:10:55;14.30;99.90
34147;DHT22;20423;49.448;9.056;2024-03-22T10:13:31;14.50;99.90
34147;DHT22;20423;49.448;9.056;2024-03-22T10:15:57;14.50;99.90
34147;DHT22;20423;49.448;9.056;2024-03-22T10:18:40;14.70;99.90
34147;DHT22;20423;49.448;9.056;2024-03-22T10:21:06;14.80;99.90
34147;DHT22;20423;49.448;9.056;2024-03-22T10:23:32;15.20;99.90
34147;DHT22;20423;49.448;9.056;2024-03-22T10:26:01;16.00;99.90
34147;DHT22;20423;49.448;9.056;2024-03-22T10:28:48;17.10;99.90
34147;DHT22;20423;49.448;9.056;2024-03-22T10:31:14;18.10;99.90
34147;DHT22;20423;49.448;9.056;2024-03-22T10:33:44;18.80;99.90
34147;DHT22;20423;49.448;9.056;2024-03-22T10:36:10;19.20;99.90
34147;DHT22;20423;49.448;9.056;2024-03-22T10:38:38;19.30;99.90
34147;DHT22;20423;49.448;9.056;2024-03-22T10:41:05;18.60;99.90
34147;DHT22;20423;49.448;9.056;2024-03-22T10:43:31;18.00;99.90
34147;DHT22;20423;49.448;9.056;2024-03-22T10:46:03;17.30;99.90
34147;DHT22;20423;49.448;9.056;2024-03-22T10:48:30;17.30;99.90
34147;DHT22;20423;49.448;9.056;2024-03-22T10:51:01;17.00;99.90
34147;DHT22;20423;49.448;9.056;2024-03-22T10:53:30;16.30;99.90
34147;DHT22;20423;49.448;9.056;2024-03-22T10:55:58;16.00;99.90
34147;DHT22;20423;49.448;9.056;2024-03-22T10:58:25;16.10;99.90
34147;DHT22;20423;49.448;9.056;2024-03-22T11:00:52;16.00;99.90
34147;DHT22;20423;49.448;9.056;2024-03-22T11:03:27;15.80;99.90
34147;DHT22;20423;49.448;9.056;2024-03-22T11:05:55;15.40;99.90
34147;DHT22;20423;49.448;9.056;2024-03-22T11:08:26;15.10;99.90
34147;DHT22;20423;49.448;9.056;2024-03-22T11:10:52;15.10;99.90
34147;DHT22;20423;49.448;9.056;2024-03-22T11:13:21;15.30;99.90
34147;DHT22;20423;49.448;9.056;2024-03-22T11:15:50;15.40;99.90
34147;DHT22;20423;49.448;9.056;2024-03-22T11:18:17;15.40;99.90
34147;DHT22;20423;49.448;9.056;2024-03-22T11:20:43;15.40;99.90
34147;DHT22;20423;49.448;9.056;2024-03-22T11:23:12;15.30;99.90
34147;DHT22;20423;49.448;9.056;2024-03-22T11:25:38;15.30;99.90
34147;DHT22;20423;49.448;9.056;2024-03-22T11:28:04;15.30;99.90
34147;DHT22;20423;49.448;9.056;2024-03-22T11:30:31;15.30;99.90
34147;DHT22;20423;49.448;9.056;2024-03-22T11:33:00;15.20;99.90
34147;DHT22;20423;49.448;9.056;2024-03-22T11:35:26;15.30;99.90
34147;DHT22;20423;49.448;9.056;2024-03-22T11:37:58;15.40;99.90
34147;DHT22;20423;49.448;9.056;2024-03-22T11:40:27;15.40;99.90
34147;DHT22;20423;49.448;9.056;2024-03-22T11:42:55;15.30;99.90
34147;DHT22;20423;49.448;9.056;2024-03-22T11:45:23;15.40;99.90
34147;DHT22;20423;49.448;9.056;2024-03-22T11:48:07;15.70;99.90
34147;DHT22;20423;49.448;9.056;2024-03-22T11:50:33;15.70;99.90
34147;DHT22;20423;49.448;9.056;2024-03-22T11:52:58;15.80;99.90
34147;DHT22;20423;49.448;9.056;2024-03-22T11:55:27;15.80;99.90
34147;DHT22;20423;49.448;9.056;2024-03-22T11:57:53;15.60;99.90
34147;DHT22;20423;49.448;9.056;2024-03-22T12:00:19;15.40;99.90
34147;DHT22;20423;49.448;9.056;2024-03-22T12:02:45;15.10;99.90
34147;DHT22;20423;49.448;9.056;2024-03-22T12:05:11;15.00;99.90
34147;DHT22;20423;49.448;9.056;2024-03-22T12:07:37;15.10;99.90
34147;DHT22;20423;49.448;9.056;2024-03-22T12:10:05;15.00;99.90
34147;DHT22;20423;49.448;9.056;2024-03-22T12:12:30;15.00;99.90
34147;DHT22;20423;49.448;9.056;2024-03-22T12:14:56;15.20;99.90
34147;DHT22;20423;49.448;9.056;2024-03-22T12:17:22;15.20;99.90
34147;DHT22;20423;49.448;9.056;2024-03-22T12:19:51;15.20;99.90
34147;DHT22;20423;49.448;9.056;2024-03-22T12:22:17;15.20;99.90
34147;DHT22;20423;49.448;9.056;2024-03-22T12:24:42;15.40;99.90
34147;DHT22;20423;49.448;9.056;2024-03-22T12:27:08;15.60;99.90
34147;DHT22;20423;49.448;9.056;2024-03-22T12:29:34;16.10;99.90
34147;DHT22;20423;49.448;9.056;2024-03-22T12:32:02;16.60;99.90
34147;DHT22;20423;49.448;9.056;2024-03-22T12:34:30;16.70;99.90
34147;DHT22;20423;49.448;9.056;2024-03-22T12:36:56;16.50;99.90
34147;DHT22;20423;49.448;9.056;2024-03-22T12:39:22;16.90;99.90
34147;DHT22;20423;49.448;9.056;2024-03-22T12:41:48;17.10;99.90
34147;DHT22;20423;49.448;9.056;2024-03-22T12:44:14;17.00;99.90
34147;DHT22;20423;49.448;9.056;2024-03-22T12:46:39;16.80;99.90
34147;DHT22;20423;49.448;9.056;2024-03-22T12:49:07;16.90;99.90
34147;DHT22;20423;49.448;9.056;2024-03-22T12:51:35;17.00;99.90
34147;DHT22;20423;49.448;9.056;2024-03-22T12:54:01;17.10;99.90
34147;DHT22;20423;49.448;9.056;2024-03-22T12:56:27;16.90;99.90
34147;DHT22;20423;49.448;9.056;2024-03-22T12:58:52;17.00;99.90
34147;DHT22;20423;49.448;9.056;2024-03-22T13:01:18;16.90;99.90
34147;DHT22;20423;49.448;9.056;2024-03-22T13:03:44;16.60;99.90
34147;DHT22;20423;49.448;9.056;2024-03-22T13:06:09;16.50;99.90
34147;DHT22;20423;49.448;9.056;2024-03-22T13:08:35;16.50;99.90
34147;DHT22;20423;49.448;9.056;2024-03-22T13:11:01;16.60;99.90
34147;DHT22;20423;49.448;9.056;2024-03-22T13:13:27;16.50;99.90
34147;DHT22;20423;49.448;9.056;2024-03-22T13:15:52;16.30;99.90
34147;DHT22;20423;49.448;9.056;2024-03-22T13:18:18;16.40;99.90
34147;DHT22;20423;49.448;9.056;2024-03-22T13:20:47;16.40;99.90
34147;DHT22;20423;49.448;9.056;2024-03-22T13:23:12;16.00;99.90
34147;DHT22;20423;49.448;9.056;2024-03-22T13:25:38;15.70;99.90
34147;DHT22;20423;49.448;9.056;2024-03-22T13:28:04;15.70;99.90
34147;DHT22;20423;49.448;9.056;2024-03-22T13:30:32;15.80;99.90
34147;DHT22;20423;49.448;9.056;2024-03-22T13:33:00;15.60;99.90
34147;DHT22;20423;49.448;9.056;2024-03-22T13:35:26;15.60;99.90
34147;DHT22;20423;49.448;9.056;2024-03-22T13:37:52;15.50;99.90
34147;DHT22;20423;49.448;9.056;2024-03-22T13:40:42;15.40;99.90
34147;DHT22;20423;49.448;9.056;2024-03-22T13:43:10;15.80;99.90
34147;DHT22;20423;49.448;9.056;2024-03-22T13:45:41;15.80;99.90
34147;DHT22;20423;49.448;9.056;2024-03-22T13:48:10;16.00;99.90
34147;DHT22;20423;49.448;9.056;2024-03-22T13:50:37;16.30;99.90
34147;DHT22;20423;49.448;9.056;2024-03-22T13:53:02;16.40;99.90
34147;DHT22;20423;49.448;9.056;2024-03-22T13:55:28;16.50;99.90
34147;DHT22;20423;49.448;9.056;2024-03-22T13:57:54;16.20;99.90
34147;DHT22;20423;49.448;9.056;2024-03-22T14:00:20;15.80;99.90
34147;DHT22;20423;49.448;9.056;2024-03-22T14:02:45;15.70;99.90
34147;DHT22;20423;49.448;9.056;2024-03-22T14:05:20;15.70;99.90
34147;DHT22;20423;49.448;9.056;2024-03-22T14:07:46;15.60;99.90
34147;DHT22;20423;49.448;9.056;2024-03-22T14:10:31;15.60;99.90
34147;DHT22;20423;49.448;9.056;2024-03-22T14:12:57;15.40;99.90
34147;DHT22;20423;49.448;9.056;2024-03-22T14:15:24;15.50;99.90
34147;DHT22;20423;49.448;9.056;2024-03-22T14:17:52;15.40;99.90
34147;DHT22;20423;49.448;9.056;2024-03-22T14:20:18;15.30;99.90
34147;DHT22;20423;49.448;9.056;2024-03-22T14:22:44;15.10;99.90
34147;DHT22;20423;49.448;9.056;2024-03-22T14:25:11;15.20;99.90
34147;DHT22;20423;49.448;9.056;2024-03-22T14:27:38;15.20;99.90
34147;DHT22;20423;49.448;9.056;2024-03-22T14:30:05;15.40;99.90
34147;DHT22;20423;49.448;9.056;2024-03-22T14:32:33;15.50;99.90
34147;DHT22;20423;49.448;9.056;2024-03-22T14:34:59;15.60;99.90
34147;DHT22;20423;49.448;9.056;2024-03-22T14:37:27;15.80;99.90
34147;DHT22;20423;49.448;9.056;2024-03-22T14:39:52;16.00;99.90
34147;DHT22;20423;49.448;9.056;2024-03-22T14:42:18;16.00;99.90
34147;DHT22;20423;49.448;9.056;2024-03-22T14:44:44;16.20;99.90
34147;DHT22;20423;49.448;9.056;2024-03-22T14:47:10;16.10;99.90
34147;DHT22;20423;49.448;9.056;2024-03-22T14:49:36;16.10;99.90
34147;DHT22;20423;49.448;9.056;2024-03-22T14:52:01;16.10;99.90
34147;DHT22;20423;49.448;9.056;2024-03-22T14:54:27;16.00;99.90
34147;DHT22;20423;49.448;9.056;2024-03-22T14:56:53;16.00;99.90
34147;DHT22;20423;49.448;9.056;2024-03-22T14:59:21;16.20;99.90
34147;DHT22;20423;49.448;9.056;2024-03-22T15:01:47;16.20;99.90
34147;DHT22;20423;49.448;9.056;2024-03-22T15:04:13;16.10;99.90
34147;DHT22;20423;49.448;9.056;2024-03-22T15:06:38;16.20;99.90
34147;DHT22;20423;49.448;9.056;2024-03-22T15:09:04;16.10;99.90
34147;DHT22;20423;49.448;9.056;2024-03-22T15:11:35;16.10;99.90
34147;DHT22;20423;49.448;9.056;2024-03-22T15:14:01;16.10;99.90
34147;DHT22;20423;49.448;9.056;2024-03-22T15:16:28;15.90;99.90
34147;DHT22;20423;49.448;9.056;2024-03-22T15:18:54;16.00;99.90
34147;DHT22;20423;49.448;9.056;2024-03-22T15:21:20;15.80;99.90
34147;DHT22;20423;49.448;9.056;2024-03-22T15:24:07;15.80;99.90
34147;DHT22;20423;49.448;9.056;2024-03-22T15:26:33;15.80;99.90
34147;DHT22;20423;49.448;9.056;2024-03-22T15:28:59;15.80;99.90
34147;DHT22;20423;49.448;9.056;2024-03-22T15:31:43;15.70;99.90
34147;DHT22;20423;49.448;9.056;2024-03-22T15:34:09;15.60;99.90
34147;DHT22;20423;49.448;9.056;2024-03-22T15:36:35;15.60;99.90
34147;DHT22;20423;49.448;9.056;2024-03-22T15:39:00;15.40;99.90
34147;DHT22;20423;49.448;9.056;2024-03-22T15:41:26;15.20;99.90
34147;DHT22;20423;49.448;9.056;2024-03-22T15:43:52;15.20;99.90
34147;DHT22;20423;49.448;9.056;2024-03-22T15:46:17;15.20;99.90